Terminal Aerodrome Forecast
Issued by NWS Twin Cities, MN

Home | Current Version | Previous Version | Text Only | Print | Product List | Glossary On
Versions: 1 2 3 4 5 6 7 8 9 10 11 12 13 14 15 16 17 18 19
000
FTUS43 KMPX 282330
TAFSTC
TAF
KSTC 282330Z 0100/0124 18011G17KT P6SM SCT040 BKN100
      TEMPO 0100/0103 BKN030
     FM010300 19009KT P6SM BKN030 OVC050
     FM010900 25006KT P6SM SCT030 BKN100
     FM011400 26009KT P6SM SCT150=

USA.gov is the U.S. government's official web portal to all federal, state and local government web resources and services.